createdAt,value
2022-08-07T00:02:41.691Z,1.00
2022-08-07T00:04:56.725Z,99.90
2022-08-07T00:07:27.720Z,1.00
2022-08-07T00:10:25.960Z,1.00
2022-08-07T00:13:00.306Z,1.00
2022-08-07T00:15:38.083Z,99.90
2022-08-07T00:18:24.255Z,1.00
2022-08-07T00:21:01.824Z,99.90
2022-08-07T00:23:33.330Z,99.90
2022-08-07T00:26:13.330Z,1.00
2022-08-07T00:28:56.576Z,99.90
2022-08-07T00:31:37.647Z,1.00
2022-08-07T00:34:09.532Z,1.00
2022-08-07T00:36:43.084Z,1.00
2022-08-07T00:39:12.838Z,99.90
2022-08-07T00:42:02.293Z,1.00
2022-08-07T00:44:33.921Z,1.00
2022-08-07T00:47:06.321Z,99.90
2022-08-07T00:50:20.849Z,99.90
2022-08-07T00:52:22.091Z,99.90
2022-08-07T00:54:53.910Z,99.90
2022-08-07T00:57:26.298Z,1.00
2022-08-07T00:59:54.442Z,1.00
2022-08-07T01:02:28.619Z,99.90
2022-08-07T01:04:59.305Z,20.00
2022-08-07T01:07:29.556Z,1.00
2022-08-07T01:10:06.620Z,1.00
2022-08-07T01:12:53.315Z,1.00
2022-08-07T01:15:35.967Z,99.90
2022-08-07T01:18:16.675Z,1.00
2022-08-07T01:21:22.545Z,1.00
2022-08-07T01:23:52.331Z,1.00
2022-08-07T01:26:22.611Z,1.00
2022-08-07T01:28:56.648Z,1.00
2022-08-07T01:31:29.972Z,1.00
2022-08-07T01:34:09.591Z,1.00
2022-08-07T01:36:40.387Z,1.00
2022-08-07T01:39:10.171Z,1.00
2022-08-07T01:41:40.883Z,1.00
2022-08-07T01:44:27.406Z,1.00
2022-08-07T01:46:55.489Z,1.00
2022-08-07T01:49:26.713Z,1.00
2022-08-07T01:52:04.899Z,1.00
2022-08-07T01:54:39.361Z,1.00
2022-08-07T01:57:34.064Z,1.00
2022-08-07T02:00:13.685Z,1.00
2022-08-07T02:03:18.990Z,1.00
2022-08-07T02:05:48.683Z,1.00
2022-08-07T02:08:29.182Z,1.00
2022-08-07T02:10:59.411Z,1.00
2022-08-07T02:13:56.627Z,1.00
2022-08-07T02:16:20.123Z,1.00
2022-08-07T02:19:05.632Z,1.00
2022-08-07T02:21:56.649Z,1.00
2022-08-07T02:24:29.411Z,1.00
2022-08-07T02:27:01.384Z,1.00
2022-08-07T02:29:31.760Z,1.00
2022-08-07T02:32:01.584Z,1.00
2022-08-07T02:34:30.768Z,1.00
2022-08-07T02:37:00.837Z,1.00
2022-08-07T02:39:43.477Z,1.00
2022-08-07T02:42:18.633Z,1.00
2022-08-07T02:44:49.831Z,1.00
2022-08-07T02:47:23.341Z,1.00
2022-08-07T02:49:58.312Z,1.00
2022-08-07T02:52:33.101Z,1.00
2022-08-07T02:55:27.936Z,1.00
2022-08-07T02:58:09.785Z,1.00
2022-08-07T03:00:40.661Z,1.00
2022-08-07T03:03:22.911Z,1.00
2022-08-07T03:05:53.613Z,1.00
2022-08-07T03:08:26.903Z,1.00
2022-08-07T03:10:58.433Z,1.00
2022-08-07T03:13:26.978Z,1.00
2022-08-07T03:15:58.709Z,1.00
2022-08-07T03:18:35.067Z,1.00
2022-08-07T03:21:08.518Z,1.00
2022-08-07T03:24:20.559Z,15.50
2022-08-07T03:26:32.352Z,38.00
2022-08-07T03:29:03.406Z,24.30
2022-08-07T03:31:42.422Z,25.50
2022-08-07T03:34:11.864Z,10.90
2022-08-07T03:36:47.985Z,27.40
2022-08-07T03:39:17.787Z,37.30
2022-08-07T03:42:06.298Z,20.80
2022-08-07T03:44:37.494Z,16.90
2022-08-07T03:47:13.776Z,9.90
2022-08-07T03:49:51.972Z,27.70
2022-08-07T03:52:27.388Z,18.90
2022-08-07T03:55:06.171Z,19.90
2022-08-07T03:58:33.395Z,21.30
2022-08-07T04:00:30.451Z,38.10
2022-08-07T04:03:04.147Z,34.80
2022-08-07T04:05:40.442Z,35.00
2022-08-07T04:08:12.346Z,44.40
2022-08-07T04:10:42.343Z,38.60
2022-08-07T04:13:15.351Z,13.70
2022-08-07T04:15:45.518Z,9.90
2022-08-07T04:18:57.688Z,27.80
2022-08-07T04:21:02.595Z,31.50
2022-08-07T04:23:43.906Z,16.60
2022-08-07T04:26:22.579Z,21.20
2022-08-07T04:28:52.864Z,15.90
2022-08-07T04:31:38.763Z,17.30
2022-08-07T04:34:16.430Z,29.40
2022-08-07T04:36:45.371Z,23.10
2022-08-07T04:39:17.637Z,28.90
2022-08-07T04:41:50.166Z,29.80
2022-08-07T04:44:18.854Z,33.30
2022-08-07T04:47:56.748Z,30.10
2022-08-07T04:50:11.027Z,22.90
2022-08-07T04:53:04.907Z,37.00
2022-08-07T04:58:24.120Z,22.40
2022-08-07T05:02:00.954Z,13.20
2022-08-07T05:04:47.273Z,1.00
2022-08-07T05:07:36.532Z,10.50
2022-08-07T05:10:11.758Z,1.00
2022-08-07T05:12:53.825Z,1.00
2022-08-07T05:15:36.002Z,1.00
2022-08-07T05:18:19.026Z,1.00
2022-08-07T05:20:56.903Z,1.00
2022-08-07T05:23:35.754Z,1.00
2022-08-07T05:26:13.307Z,1.00
2022-08-07T05:28:50.016Z,1.00
2022-08-07T05:31:22.079Z,1.00
2022-08-07T05:34:01.471Z,1.00
2022-08-07T05:36:35.302Z,1.00
2022-08-07T05:40:05.517Z,1.00
2022-08-07T05:42:00.328Z,1.00
2022-08-07T05:44:34.037Z,1.00
2022-08-07T05:47:28.124Z,1.00
2022-08-07T05:49:52.083Z,1.00
2022-08-07T05:52:20.617Z,1.00
2022-08-07T05:55:07.070Z,1.00
2022-08-07T05:57:42.389Z,1.00
2022-08-07T06:00:16.069Z,1.00
2022-08-07T06:02:49.077Z,1.00
2022-08-07T06:05:20.377Z,1.00
2022-08-07T06:08:13.319Z,99.90
2022-08-07T06:10:46.985Z,99.90
2022-08-07T06:13:19.767Z,99.90
2022-08-07T06:16:10.234Z,1.00
2022-08-07T06:18:43.017Z,1.00
2022-08-07T06:22:14.889Z,1.00
2022-08-07T06:24:52.715Z,1.00
2022-08-07T06:26:51.298Z,1.00
2022-08-07T06:29:19.558Z,99.90
2022-08-07T06:31:52.340Z,1.00
2022-08-07T06:34:20.798Z,99.90
2022-08-07T06:36:51.839Z,91.70
2022-08-07T06:40:13.381Z,5.20
2022-08-07T06:42:34.773Z,99.90
2022-08-07T06:45:18.217Z,1.00
2022-08-07T06:47:56.985Z,1.00
2022-08-07T06:50:26.363Z,99.90
2022-08-07T06:52:55.889Z,84.10
2022-08-07T06:55:54.039Z,1.00
2022-08-07T06:58:16.603Z,1.00
2022-08-07T07:00:45.581Z,1.00
2022-08-07T07:03:17.109Z,99.90
2022-08-07T07:06:03.343Z,99.90
2022-08-07T07:08:33.973Z,99.90
2022-08-07T07:11:13.047Z,1.00
2022-08-07T07:13:58.075Z,1.00
2022-08-07T07:16:45.129Z,1.00
2022-08-07T07:19:55.652Z,99.90
2022-08-07T07:22:34.002Z,99.90
2022-08-07T07:25:02.889Z,1.00
2022-08-07T07:27:56.140Z,1.00
2022-08-07T07:30:40.005Z,99.90
2022-08-07T07:33:20.266Z,56.10
2022-08-07T07:36:05.575Z,99.90
2022-08-07T07:38:43.406Z,1.00
2022-08-07T07:41:15.381Z,1.00
2022-08-07T07:43:48.220Z,1.00
2022-08-07T07:46:57.340Z,1.00
2022-08-07T07:50:34.815Z,99.90
2022-08-07T07:52:20.923Z,99.90
2022-08-07T07:54:53.565Z,77.70
2022-08-07T07:57:43.842Z,1.00
2022-08-07T08:00:15.068Z,1.00
2022-08-07T08:03:16.686Z,1.00
2022-08-07T08:05:59.623Z,1.00
2022-08-07T08:08:34.417Z,1.00
2022-08-07T08:11:13.488Z,1.00
2022-08-07T08:13:54.006Z,99.90
2022-08-07T08:16:32.967Z,99.90
2022-08-07T08:19:17.613Z,99.90
2022-08-07T08:22:15.085Z,99.90
2022-08-07T08:25:18.859Z,99.90
2022-08-07T08:28:01.747Z,78.60
2022-08-07T08:30:42.524Z,12.30
2022-08-07T08:33:18.635Z,1.00
2022-08-07T08:35:51.464Z,1.00
2022-08-07T08:38:29.389Z,1.00
2022-08-07T08:41:19.526Z,1.00
2022-08-07T08:44:02.825Z,1.00
2022-08-07T08:46:54.762Z,1.00
2022-08-07T08:49:46.846Z,1.00
2022-08-07T08:52:40.785Z,1.00
2022-08-07T08:55:55.121Z,1.00
2022-08-07T08:59:06.324Z,1.00
2022-08-07T09:01:59.524Z,1.00
2022-08-07T09:04:53.033Z,1.00
2022-08-07T09:07:58.267Z,1.00
2022-08-07T09:11:04.069Z,1.00
2022-08-07T09:13:38.262Z,1.00
2022-08-07T09:16:30.393Z,1.00
2022-08-07T09:19:50.786Z,1.00
2022-08-07T09:24:28.458Z,1.00
2022-08-07T09:25:33.555Z,1.00
2022-08-07T09:29:22.395Z,1.00
2022-08-07T09:31:17.349Z,1.00
2022-08-07T09:34:10.588Z,1.00
2022-08-07T09:37:19.115Z,1.00
2022-08-07T09:40:05.771Z,1.00
2022-08-07T09:43:08.320Z,1.00
2022-08-07T09:47:23.515Z,1.00
2022-08-07T09:50:02.458Z,1.00
2022-08-07T09:52:41.745Z,1.00
2022-08-07T09:55:29.981Z,1.00
2022-08-07T09:58:19.628Z,1.00
2022-08-07T10:01:51.819Z,1.00
2022-08-07T10:04:28.205Z,1.00
2022-08-07T10:07:52.797Z,1.00
2022-08-07T10:10:53.817Z,1.00
2022-08-07T10:14:00.165Z,1.00
2022-08-07T10:16:33.682Z,1.00
2022-08-07T10:19:40.555Z,1.00
2022-08-07T10:22:47.414Z,1.00
2022-08-07T10:25:52.955Z,1.00
2022-08-07T10:28:49.599Z,1.00
2022-08-07T10:31:26.127Z,1.00
2022-08-07T10:34:18.374Z,1.00
2022-08-07T10:36:58.434Z,1.00
2022-08-07T10:40:03.386Z,1.00
2022-08-07T10:43:07.238Z,1.00
2022-08-07T10:45:45.219Z,1.00
2022-08-07T10:48:46.480Z,1.00
2022-08-07T10:51:39.672Z,1.00
2022-08-07T10:54:28.920Z,1.00
2022-08-07T10:57:07.255Z,99.90
2022-08-07T10:59:53.767Z,99.90
2022-08-07T11:02:49.246Z,99.90
2022-08-07T11:05:35.469Z,99.90
2022-08-07T11:08:16.589Z,99.90
2022-08-07T11:11:00.014Z,99.90
2022-08-07T11:14:46.242Z,99.90
2022-08-07T11:16:54.810Z,99.90
2022-08-07T11:19:40.962Z,99.90
2022-08-07T11:22:32.531Z,99.90
2022-08-07T11:25:16.674Z,99.90
2022-08-07T11:28:21.186Z,99.90
2022-08-07T11:31:08.830Z,99.90
2022-08-07T11:34:00.082Z,99.90
2022-08-07T11:36:34.295Z,99.90
2022-08-07T11:39:39.839Z,99.90
2022-08-07T11:42:52.593Z,99.90
2022-08-07T11:45:59.169Z,99.90
2022-08-07T11:49:17.486Z,99.90
2022-08-07T11:52:03.106Z,99.90
2022-08-07T11:54:46.340Z,99.90
2022-08-07T11:57:59.575Z,99.90
2022-08-07T12:00:34.445Z,99.90
2022-08-07T12:03:44.174Z,99.90
2022-08-07T12:06:37.905Z,99.90
2022-08-07T12:09:25.841Z,99.90
2022-08-07T12:12:10.026Z,99.90
2022-08-07T12:15:17.185Z,99.90
2022-08-07T12:18:29.897Z,99.90
2022-08-07T12:21:07.869Z,99.90
2022-08-07T12:24:07.067Z,99.90
2022-08-07T12:26:51.818Z,99.90
2022-08-07T12:29:38.179Z,99.90
2022-08-07T12:32:14.574Z,99.90
2022-08-07T12:34:49.513Z,99.90
2022-08-07T12:37:23.573Z,99.90
2022-08-07T12:39:58.753Z,99.90
2022-08-07T12:42:31.756Z,99.90
2022-08-07T12:45:07.289Z,99.90
2022-08-07T12:48:27.565Z,99.90
2022-08-07T12:52:11.873Z,99.90
2022-08-07T12:54:55.049Z,99.90
2022-08-07T12:57:29.935Z,99.90
2022-08-07T13:00:12.830Z,99.90
2022-08-07T13:03:26.992Z,99.90
2022-08-07T13:06:27.753Z,99.90
2022-08-07T13:09:12.676Z,98.60
2022-08-07T13:12:09.923Z,95.40
2022-08-07T13:15:02.390Z,92.80
2022-08-07T13:17:52.581Z,93.30
2022-08-07T13:20:39.274Z,94.50
2022-08-07T13:24:04.265Z,95.30
2022-08-07T13:26:20.022Z,92.80
2022-08-07T13:29:34.819Z,96.30
2022-08-07T13:32:31.754Z,96.10
2022-08-07T13:35:08.683Z,96.00
2022-08-07T13:38:02.612Z,91.30
2022-08-07T13:40:42.268Z,87.00
2022-08-07T13:43:13.347Z,79.50
2022-08-07T13:46:21.799Z,77.20
2022-08-07T13:48:38.454Z,64.70
2022-08-07T13:51:27.328Z,62.20
2022-08-07T13:54:04.369Z,62.10
2022-08-07T13:56:40.941Z,71.20
2022-08-07T13:59:31.586Z,78.80
2022-08-07T14:02:13.222Z,79.50
2022-08-07T14:04:47.490Z,78.70
2022-08-07T14:07:28.499Z,81.10
2022-08-07T14:10:21.608Z,80.10
2022-08-07T14:12:55.960Z,76.40
2022-08-07T14:15:31.972Z,67.90
2022-08-07T14:18:27.367Z,57.70
2022-08-07T14:22:02.520Z,56.10
2022-08-07T14:24:29.442Z,53.20
2022-08-07T14:28:11.657Z,49.50
2022-08-07T14:30:06.199Z,53.00
2022-08-07T14:32:55.277Z,54.40
2022-08-07T14:38:30.632Z,49.90
2022-08-07T14:41:04.262Z,47.10
2022-08-07T14:43:58.983Z,42.30
2022-08-07T14:46:31.384Z,43.90
2022-08-07T14:49:17.641Z,42.80
2022-08-07T14:52:04.865Z,41.70
2022-08-07T14:54:43.196Z,39.30
2022-08-07T14:57:14.983Z,39.80
2022-08-07T15:00:04.473Z,39.00
2022-08-07T15:02:37.168Z,34.70
2022-08-07T15:05:20.373Z,32.00
2022-08-07T15:07:52.713Z,28.90
2022-08-07T15:10:26.031Z,28.50
2022-08-07T15:13:11.681Z,31.10
2022-08-07T15:15:53.481Z,32.10
2022-08-07T15:18:33.601Z,27.50
2022-08-07T15:21:58.410Z,25.90
2022-08-07T15:25:13.487Z,22.50
2022-08-07T15:27:15.361Z,27.10
2022-08-07T15:32:51.165Z,25.50
2022-08-07T15:38:33.175Z,25.40
2022-08-07T15:41:24.480Z,25.60
2022-08-07T15:44:10.129Z,26.30
2022-08-07T15:46:52.038Z,26.10
2022-08-07T15:50:05.931Z,24.50
2022-08-07T15:52:30.252Z,22.50
2022-08-07T15:55:03.749Z,23.30
2022-08-07T15:57:47.506Z,24.70
2022-08-07T16:00:31.079Z,21.70
2022-08-07T16:03:46.518Z,21.00
2022-08-07T16:06:24.405Z,28.40
2022-08-07T16:08:57.523Z,37.20
2022-08-07T16:11:43.165Z,37.80
2022-08-07T16:14:36.526Z,37.40
2022-08-07T16:17:15.404Z,38.00
2022-08-07T16:20:05.615Z,40.50
2022-08-07T16:22:55.414Z,48.60
2022-08-07T16:25:48.830Z,56.30
2022-08-07T16:30:07.733Z,52.10
2022-08-07T16:32:01.453Z,45.00
2022-08-07T16:34:55.432Z,40.50
2022-08-07T16:38:03.394Z,36.20
2022-08-07T16:40:33.312Z,32.40
2022-08-07T16:43:13.504Z,30.40
2022-08-07T16:46:33.139Z,33.20
2022-08-07T16:50:26.605Z,35.10
2022-08-07T16:58:08.029Z,40.40
2022-08-07T17:00:55.534Z,38.00
2022-08-07T17:04:06.251Z,37.80
2022-08-07T17:06:52.949Z,40.20
2022-08-07T17:10:06.790Z,39.20
2022-08-07T17:12:53.986Z,42.60
2022-08-07T17:15:44.231Z,40.30
2022-08-07T17:18:37.539Z,39.20
2022-08-07T17:21:24.625Z,35.50
2022-08-07T17:24:23.595Z,40.10
2022-08-07T17:26:58.641Z,42.10
2022-08-07T17:30:14.822Z,40.70
2022-08-07T17:34:10.393Z,44.20
2022-08-07T17:36:25.792Z,48.10
2022-08-07T17:39:10.533Z,52.60
2022-08-07T17:42:03.843Z,51.40
2022-08-07T17:44:54.565Z,54.80
2022-08-07T17:47:42.338Z,61.40
2022-08-07T17:50:19.875Z,79.00
2022-08-07T17:52:59.035Z,94.40
2022-08-07T17:55:59.896Z,99.70
2022-08-07T17:58:54.280Z,99.90
2022-08-07T18:01:36.319Z,99.90
2022-08-07T18:04:31.250Z,99.90
2022-08-07T18:07:20.160Z,99.90
2022-08-07T18:10:06.273Z,99.90
2022-08-07T18:13:06.852Z,99.90
2022-08-07T18:16:09.837Z,99.90
2022-08-07T18:21:06.940Z,99.90
2022-08-07T18:21:58.142Z,99.90
2022-08-07T18:24:51.278Z,99.90
2022-08-07T18:27:56.868Z,99.90
2022-08-07T18:30:36.674Z,99.90
2022-08-07T18:33:55.962Z,99.90
2022-08-07T18:36:54.070Z,99.90
2022-08-07T18:40:06.407Z,99.90
2022-08-07T18:42:44.725Z,99.90
2022-08-07T18:45:44.818Z,99.90
2022-08-07T18:50:04.782Z,99.90
2022-08-07T18:52:35.317Z,99.90
2022-08-07T18:55:41.687Z,99.90
2022-08-07T18:58:43.985Z,99.90
2022-08-07T19:02:33.084Z,99.90
2022-08-07T19:04:54.686Z,99.90
2022-08-07T19:07:51.758Z,99.90
2022-08-07T19:10:31.312Z,99.90
2022-08-07T19:13:21.637Z,99.90
2022-08-07T19:17:05.809Z,99.90
2022-08-07T19:19:58.599Z,99.90
2022-08-07T19:22:45.475Z,99.90
2022-08-07T19:26:21.644Z,99.90
2022-08-07T19:28:57.546Z,99.90
2022-08-07T19:31:59.513Z,99.90
2022-08-07T19:34:33.839Z,99.90
2022-08-07T19:37:09.816Z,99.90
2022-08-07T19:40:01.818Z,99.90
2022-08-07T19:42:40.561Z,99.90
2022-08-07T19:46:08.073Z,99.90
2022-08-07T19:48:18.710Z,99.90
2022-08-07T19:50:54.357Z,99.90
2022-08-07T19:54:32.314Z,99.90
2022-08-07T19:56:58.654Z,99.90
2022-08-07T19:59:11.884Z,99.90
2022-08-07T20:01:57.204Z,99.90
2022-08-07T20:04:37.585Z,99.90
2022-08-07T20:07:14.789Z,99.90
2022-08-07T20:10:36.940Z,99.90
2022-08-07T20:12:42.967Z,99.90
2022-08-07T20:15:22.131Z,99.90
2022-08-07T20:18:01.402Z,99.90
2022-08-07T20:20:33.588Z,99.90
2022-08-07T20:23:11.031Z,99.90
2022-08-07T20:26:04.703Z,99.90
2022-08-07T20:28:41.200Z,99.90
2022-08-07T20:31:21.452Z,99.90
2022-08-07T20:34:00.733Z,99.90
2022-08-07T20:36:29.945Z,99.90
2022-08-07T20:39:00.565Z,99.90
2022-08-07T20:41:37.951Z,99.90
2022-08-07T20:44:11.118Z,99.90
2022-08-07T20:46:44.230Z,99.90
2022-08-07T20:49:59.051Z,99.90
2022-08-07T20:52:16.991Z,99.90
2022-08-07T20:54:53.729Z,99.90
2022-08-07T20:57:25.528Z,99.90
2022-08-07T21:00:09.253Z,99.90
2022-08-07T21:02:58.116Z,99.90
2022-08-07T21:05:51.038Z,99.90
2022-08-07T21:08:40.778Z,99.90
2022-08-07T21:11:15.206Z,99.90
2022-08-07T21:14:16.648Z,99.90
2022-08-07T21:17:06.782Z,99.90
2022-08-07T21:19:51.856Z,99.90
2022-08-07T21:22:28.644Z,99.90
2022-08-07T21:25:22.885Z,99.90
2022-08-07T21:28:08.568Z,99.90
2022-08-07T21:30:42.100Z,99.90
2022-08-07T21:33:18.664Z,99.90
2022-08-07T21:36:11.693Z,99.90
2022-08-07T21:38:55.525Z,1.00
2022-08-07T21:41:37.986Z,1.00
2022-08-07T21:44:30.100Z,1.00
2022-08-07T21:47:30.776Z,1.00
2022-08-07T21:50:08.277Z,1.00
2022-08-07T21:52:57.954Z,1.00
2022-08-07T21:55:47.931Z,1.00
2022-08-07T21:58:40.190Z,1.00
2022-08-07T22:02:07.252Z,1.00
2022-08-07T22:04:21.644Z,1.00
2022-08-07T22:07:05.562Z,1.00
2022-08-07T22:09:53.763Z,1.00
2022-08-07T22:12:36.906Z,99.90
2022-08-07T22:16:39.549Z,1.00
2022-08-07T22:18:35.407Z,1.00
2022-08-07T22:22:05.306Z,99.90
2022-08-07T22:24:37.476Z,99.90
2022-08-07T22:27:16.032Z,99.90
2022-08-07T22:29:52.113Z,99.90
2022-08-07T22:32:30.001Z,99.90
2022-08-07T22:35:02.532Z,99.90
2022-08-07T22:38:04.731Z,99.90
2022-08-07T22:40:59.985Z,99.90
2022-08-07T22:43:34.122Z,1.00
2022-08-07T22:47:02.483Z,1.00
2022-08-07T22:49:33.871Z,1.00
2022-08-07T22:52:39.880Z,99.90
2022-08-07T22:55:47.511Z,1.00
2022-08-07T22:58:34.741Z,1.00
2022-08-07T23:01:26.975Z,1.00
2022-08-07T23:04:45.241Z,1.00
2022-08-07T23:07:48.141Z,1.00
2022-08-07T23:10:39.681Z,1.00
2022-08-07T23:13:29.415Z,1.00
2022-08-07T23:16:48.551Z,66.00
2022-08-07T23:19:58.038Z,99.90
2022-08-07T23:22:40.080Z,99.90
2022-08-07T23:25:08.968Z,99.90
2022-08-07T23:28:20.473Z,99.90
2022-08-07T23:31:07.123Z,99.90
2022-08-07T23:34:38.054Z,1.00
2022-08-07T23:37:37.804Z,99.90
2022-08-07T23:41:01.688Z,1.00
2022-08-07T23:43:38.078Z,99.90
2022-08-07T23:46:20.212Z,99.90
2022-08-07T23:49:42.015Z,99.90
2022-08-07T23:52:58.161Z,1.00
2022-08-07T23:56:00.583Z,1.00
2022-08-07T23:59:10.576Z,99.90
